createdAt,value
2018-04-19T00:00:47.781Z,69.70
2018-04-19T00:03:15.544Z,69.50
2018-04-19T00:05:43.305Z,69.30
2018-04-19T00:08:11.005Z,69.00
2018-04-19T00:10:39.394Z,69.30
2018-04-19T00:13:07.850Z,69.30
2018-04-19T00:15:35.598Z,69.20
2018-04-19T00:18:03.362Z,69.20
2018-04-19T00:20:31.169Z,69.30
2018-04-19T00:22:58.921Z,69.00
2018-04-19T00:25:27.305Z,69.10
2018-04-19T00:27:55.135Z,69.00
2018-04-19T00:30:22.781Z,69.70
2018-04-19T00:32:50.476Z,69.30
2018-04-19T00:35:18.223Z,69.60
2018-04-19T00:37:45.885Z,69.20
2018-04-19T00:40:13.529Z,70.20
2018-04-19T00:42:41.148Z,69.60
2018-04-19T00:45:08.775Z,69.60
2018-04-19T00:47:36.642Z,68.70
2018-04-19T00:50:04.330Z,69.70
2018-04-19T00:52:43.864Z,69.30
2018-04-19T00:55:12.203Z,69.80
2018-04-19T00:57:41.211Z,70.90
2018-04-19T01:00:08.871Z,70.90
2018-04-19T01:02:36.641Z,70.80
2018-04-19T01:05:04.324Z,70.60
2018-04-19T01:07:32.097Z,71.00
2018-04-19T01:09:59.865Z,70.90
2018-04-19T01:12:27.529Z,71.30
2018-04-19T01:14:55.293Z,71.10
2018-04-19T01:17:23.844Z,71.00
2018-04-19T01:19:51.505Z,71.00
2018-04-19T01:22:19.169Z,70.90
2018-04-19T01:24:46.780Z,70.60
2018-04-19T01:27:14.597Z,70.50
2018-04-19T01:29:42.237Z,70.60
2018-04-19T01:32:09.949Z,71.10
2018-04-19T01:34:37.685Z,70.80
2018-04-19T01:37:06.098Z,70.60
2018-04-19T01:39:33.760Z,70.30
2018-04-19T01:42:01.360Z,70.60
2018-04-19T01:44:29.344Z,71.10
2018-04-19T01:46:57.020Z,71.90
2018-04-19T01:49:24.632Z,71.00
2018-04-19T01:51:53.045Z,71.30
2018-04-19T01:54:20.753Z,71.30
2018-04-19T01:56:48.385Z,71.40
2018-04-19T01:59:16.040Z,71.10
2018-04-19T02:01:43.680Z,71.00
2018-04-19T02:04:11.405Z,71.00
2018-04-19T02:06:39.114Z,71.50
2018-04-19T02:09:06.760Z,71.40
2018-04-19T02:11:34.484Z,71.50
2018-04-19T02:14:02.331Z,72.00
2018-04-19T02:16:29.944Z,71.40
2018-04-19T02:18:58.326Z,71.40
2018-04-19T02:21:26.957Z,71.70
2018-04-19T02:23:54.648Z,71.70
2018-04-19T02:26:22.384Z,71.70
2018-04-19T02:28:50.002Z,71.60
2018-04-19T02:31:18.415Z,70.80
2018-04-19T02:33:46.036Z,70.80
2018-04-19T02:36:14.675Z,70.40
2018-04-19T02:38:42.335Z,70.50
2018-04-19T02:41:10.886Z,70.10
2018-04-19T02:43:38.512Z,69.60
2018-04-19T02:46:06.241Z,69.40
2018-04-19T02:48:34.861Z,70.60
2018-04-19T02:51:02.700Z,70.00
2018-04-19T02:53:30.350Z,70.10
2018-04-19T02:55:57.988Z,70.30
2018-04-19T02:58:25.660Z,70.60
2018-04-19T03:00:53.281Z,70.60
2018-04-19T03:03:21.007Z,71.40
2018-04-19T03:05:48.771Z,71.70
2018-04-19T03:08:16.383Z,71.60
2018-04-19T03:10:44.930Z,71.90
2018-04-19T03:13:12.617Z,71.90
2018-04-19T03:15:41.170Z,73.10
2018-04-19T03:18:09.744Z,72.50
2018-04-19T03:20:37.347Z,72.90
2018-04-19T03:23:04.995Z,72.80
2018-04-19T03:25:33.473Z,73.10
2018-04-19T03:28:01.212Z,73.00
2018-04-19T03:30:28.863Z,73.60
2018-04-19T03:32:56.500Z,73.90
2018-04-19T03:35:25.044Z,73.40
2018-04-19T03:37:52.754Z,73.40
2018-04-19T03:40:20.372Z,73.40
2018-04-19T03:42:48.111Z,73.40
2018-04-19T03:45:15.787Z,72.60
2018-04-19T03:47:43.399Z,72.70
2018-04-19T03:50:11.009Z,73.00
2018-04-19T03:52:38.671Z,72.80
2018-04-19T03:55:06.341Z,72.70
2018-04-19T03:57:34.082Z,72.90
2018-04-19T04:00:01.757Z,72.60
2018-04-19T04:02:29.416Z,72.20
2018-04-19T04:04:57.019Z,72.20
2018-04-19T04:07:25.407Z,72.70
2018-04-19T04:09:54.117Z,72.40
2018-04-19T04:12:21.744Z,72.40
2018-04-19T04:14:50.180Z,73.20
2018-04-19T04:17:29.952Z,73.20
2018-04-19T04:20:09.388Z,73.50
2018-04-19T04:22:49.017Z,73.10
2018-04-19T04:25:16.680Z,72.90
2018-04-19T04:27:45.329Z,72.80
2018-04-19T04:30:13.163Z,72.80
2018-04-19T04:32:41.701Z,72.70
2018-04-19T04:35:09.466Z,72.70
2018-04-19T04:37:37.335Z,71.80
2018-04-19T04:40:04.943Z,70.00
2018-04-19T04:42:33.478Z,66.70
2018-04-19T04:45:01.105Z,66.60
2018-04-19T04:47:28.802Z,66.20
2018-04-19T04:49:56.601Z,65.30
2018-04-19T04:52:24.360Z,63.90
2018-04-19T04:54:52.096Z,63.80
2018-04-19T04:57:19.861Z,63.10
2018-04-19T04:59:47.523Z,62.20
2018-04-19T05:02:15.214Z,60.40
2018-04-19T05:04:42.859Z,60.00
2018-04-19T05:07:10.492Z,59.60
2018-04-19T05:09:38.168Z,58.20
2018-04-19T05:12:05.813Z,58.00
2018-04-19T05:14:33.466Z,57.70
2018-04-19T05:17:01.868Z,56.90
2018-04-19T05:19:29.641Z,56.90
2018-04-19T05:21:57.251Z,56.50
2018-04-19T05:24:25.789Z,54.80
2018-04-19T05:26:53.400Z,54.70
2018-04-19T05:29:21.776Z,55.30
2018-04-19T05:31:50.179Z,56.00
2018-04-19T05:34:18.620Z,55.90
2018-04-19T05:36:46.256Z,55.80
2018-04-19T05:39:13.908Z,55.80
2018-04-19T05:41:41.601Z,56.20
2018-04-19T05:44:09.216Z,55.90
2018-04-19T05:46:36.856Z,55.30
2018-04-19T05:49:05.285Z,55.00
2018-04-19T05:51:32.957Z,55.00
2018-04-19T05:54:00.571Z,55.10
2018-04-19T05:56:28.178Z,55.30
2018-04-19T05:58:55.957Z,55.40
2018-04-19T06:01:25.226Z,55.70
2018-04-19T06:03:52.899Z,55.70
2018-04-19T06:06:20.549Z,55.90
2018-04-19T06:08:48.245Z,55.30
2018-04-19T06:11:16.459Z,54.60
2018-04-19T06:13:44.072Z,54.00
2018-04-19T06:16:11.741Z,50.80
2018-04-19T06:18:40.217Z,46.80
2018-04-19T06:21:07.959Z,46.80
2018-04-19T06:23:35.597Z,45.40
2018-04-19T06:26:03.386Z,44.30
2018-04-19T06:28:31.037Z,42.60
2018-04-19T06:30:58.711Z,41.70
2018-04-19T06:33:26.402Z,41.00
2018-04-19T06:35:54.793Z,40.80
2018-04-19T06:38:23.260Z,41.00
2018-04-19T06:40:50.872Z,40.90
2018-04-19T06:43:18.583Z,40.30
2018-04-19T06:45:47.083Z,39.60
2018-04-19T06:48:14.828Z,39.60
2018-04-19T06:50:42.598Z,38.50
2018-04-19T06:53:10.437Z,37.50
2018-04-19T06:55:38.231Z,37.50
2018-04-19T06:58:05.881Z,37.00
2018-04-19T07:00:33.636Z,36.10
2018-04-19T07:03:01.292Z,35.80
2018-04-19T07:05:28.983Z,35.50
2018-04-19T07:07:56.821Z,35.20
2018-04-19T07:10:24.460Z,34.80
2018-04-19T07:12:52.157Z,34.60
2018-04-19T07:15:20.058Z,34.00
2018-04-19T07:17:48.516Z,32.40
2018-04-19T07:20:16.944Z,33.00
2018-04-19T07:22:44.586Z,32.90
2018-04-19T07:25:12.959Z,32.70
2018-04-19T07:27:40.917Z,32.60
2018-04-19T07:30:08.539Z,33.50
2018-04-19T07:32:36.164Z,36.40
2018-04-19T07:35:04.694Z,40.60
2018-04-19T07:37:32.309Z,40.60
2018-04-19T07:40:00.834Z,43.00
2018-04-19T07:42:28.533Z,43.00
2018-04-19T07:44:56.152Z,43.50
2018-04-19T07:47:23.923Z,44.20
2018-04-19T07:49:51.689Z,44.90
2018-04-19T07:52:19.498Z,45.40
2018-04-19T07:54:47.977Z,46.10
2018-04-19T07:57:16.356Z,46.30
2018-04-19T07:59:44.114Z,46.20
2018-04-19T08:02:12.663Z,47.90
2018-04-19T08:04:40.956Z,47.10
2018-04-19T08:07:08.815Z,46.90
2018-04-19T08:09:36.432Z,47.10
2018-04-19T08:12:04.881Z,47.50
2018-04-19T08:14:32.508Z,47.40
2018-04-19T08:17:00.121Z,47.50
2018-04-19T08:19:28.655Z,47.90
2018-04-19T08:21:56.275Z,47.80
2018-04-19T08:24:24.734Z,48.30
2018-04-19T08:26:52.401Z,48.20
2018-04-19T08:29:21.457Z,48.70
2018-04-19T08:31:49.120Z,48.70
2018-04-19T08:34:16.727Z,48.80
2018-04-19T08:36:45.138Z,48.60
2018-04-19T08:39:12.857Z,48.60
2018-04-19T08:41:40.621Z,48.90
2018-04-19T08:44:09.170Z,48.20
2018-04-19T08:46:36.844Z,48.70
2018-04-19T08:49:04.597Z,48.60
2018-04-19T08:51:32.209Z,48.60
2018-04-19T08:54:00.636Z,48.00
2018-04-19T08:56:28.333Z,47.90
2018-04-19T08:58:56.005Z,48.90
2018-04-19T09:01:24.547Z,48.40
2018-04-19T09:03:52.163Z,48.30
2018-04-19T09:06:20.569Z,49.00
2018-04-19T09:08:48.264Z,49.00
2018-04-19T09:11:16.018Z,48.90
2018-04-19T09:13:43.648Z,48.80
2018-04-19T09:16:11.264Z,48.80
2018-04-19T09:18:39.680Z,48.20
2018-04-19T09:21:08.088Z,48.30
2018-04-19T09:23:35.751Z,48.30
2018-04-19T09:26:03.531Z,48.40
2018-04-19T09:28:31.190Z,49.00
2018-04-19T09:30:58.849Z,49.00
2018-04-19T09:33:26.455Z,48.90
2018-04-19T09:35:54.278Z,48.00
2018-04-19T09:38:22.043Z,48.50
2018-04-19T09:40:49.720Z,48.70
2018-04-19T09:43:17.333Z,48.90
2018-04-19T09:45:44.977Z,49.10
2018-04-19T09:48:13.407Z,49.50
2018-04-19T09:50:41.095Z,49.50
2018-04-19T09:53:08.725Z,49.40
2018-04-19T09:55:36.447Z,49.30
2018-04-19T09:58:08.847Z,48.70
2018-04-19T10:00:42.065Z,48.70
2018-04-19T10:03:15.343Z,48.50
2018-04-19T10:05:47.783Z,47.60
2018-04-19T10:08:16.321Z,46.60
2018-04-19T10:10:44.418Z,46.60
2018-04-19T10:13:12.064Z,45.50
2018-04-19T10:15:39.813Z,46.10
2018-04-19T10:18:07.512Z,46.40
2018-04-19T10:20:35.141Z,46.90
2018-04-19T10:23:02.910Z,47.20
2018-04-19T10:25:30.539Z,47.90
2018-04-19T10:27:58.171Z,47.60
2018-04-19T10:30:26.608Z,47.60
2018-04-19T10:32:54.219Z,47.60
2018-04-19T10:35:23.517Z,47.80
2018-04-19T10:37:51.933Z,48.20
2018-04-19T10:40:19.714Z,48.20
2018-04-19T10:42:47.328Z,48.50
2018-04-19T10:45:15.863Z,47.90
2018-04-19T10:47:43.624Z,47.90
2018-04-19T10:50:11.388Z,48.50
2018-04-19T10:52:39.152Z,48.20
2018-04-19T10:55:06.769Z,48.20
2018-04-19T10:57:35.180Z,48.10
2018-04-19T11:00:02.903Z,48.10
2018-04-19T11:02:31.324Z,48.30
2018-04-19T11:04:59.022Z,48.20
2018-04-19T11:07:26.765Z,48.60
2018-04-19T11:09:54.409Z,48.50
2018-04-19T11:12:22.191Z,48.20
2018-04-19T11:14:49.866Z,47.80
2018-04-19T11:17:17.544Z,48.10
2018-04-19T11:19:45.215Z,48.40
2018-04-19T11:22:12.820Z,48.50
2018-04-19T11:24:40.640Z,48.60
2018-04-19T11:27:09.058Z,48.10
2018-04-19T11:29:36.684Z,48.00
2018-04-19T11:32:05.292Z,48.30
2018-04-19T11:34:33.676Z,48.30
2018-04-19T11:37:02.194Z,48.50
2018-04-19T11:39:29.958Z,48.50
2018-04-19T11:41:57.724Z,48.70
2018-04-19T11:44:25.365Z,49.00
2018-04-19T11:46:53.030Z,48.00
2018-04-19T11:49:20.749Z,47.00
2018-04-19T11:51:49.157Z,46.40
2018-04-19T11:54:16.800Z,46.40
2018-04-19T11:56:45.252Z,46.40
2018-04-19T11:59:12.996Z,46.30
2018-04-19T12:01:40.765Z,46.30
2018-04-19T12:04:08.529Z,45.90
2018-04-19T12:06:36.163Z,46.10
2018-04-19T12:09:03.958Z,45.50
2018-04-19T12:11:31.620Z,45.40
2018-04-19T12:13:59.234Z,44.80
2018-04-19T12:16:27.632Z,44.60
2018-04-19T12:18:55.305Z,44.60
2018-04-19T12:21:23.014Z,43.60
2018-04-19T12:23:50.642Z,42.80
2018-04-19T12:26:18.299Z,43.80
2018-04-19T12:28:46.075Z,44.30
2018-04-19T12:31:13.692Z,43.00
2018-04-19T12:33:42.095Z,43.70
2018-04-19T12:36:09.707Z,43.70
2018-04-19T12:38:37.441Z,43.80
2018-04-19T12:41:05.102Z,44.40
2018-04-19T12:43:33.538Z,43.70
2018-04-19T12:46:01.273Z,43.90
2018-04-19T12:48:28.925Z,44.40
2018-04-19T12:50:56.530Z,43.70
2018-04-19T12:53:24.896Z,43.40
2018-04-19T12:55:53.304Z,44.40
2018-04-19T12:58:21.098Z,44.20
2018-04-19T13:00:48.861Z,44.20
2018-04-19T13:03:16.727Z,44.00
2018-04-19T13:05:44.395Z,43.80
2018-04-19T13:08:12.041Z,44.00
2018-04-19T13:10:39.695Z,44.10
2018-04-19T13:13:07.484Z,44.00
2018-04-19T13:15:35.244Z,45.10
2018-04-19T13:18:02.895Z,43.90
2018-04-19T13:20:30.675Z,44.10
2018-04-19T13:22:58.296Z,45.00
2018-04-19T13:25:26.025Z,44.10
2018-04-19T13:27:54.405Z,43.40
2018-04-19T13:30:22.081Z,43.40
2018-04-19T13:32:50.470Z,43.40
2018-04-19T13:35:19.001Z,43.00
2018-04-19T13:37:46.668Z,43.00
2018-04-19T13:40:14.280Z,42.50
2018-04-19T13:42:41.915Z,42.10
2018-04-19T13:45:11.560Z,41.30
2018-04-19T13:47:39.358Z,41.10
2018-04-19T13:50:07.154Z,42.50
2018-04-19T13:52:36.354Z,42.20
2018-04-19T13:55:04.021Z,42.10
2018-04-19T13:57:31.750Z,41.00
2018-04-19T13:59:59.356Z,40.90
2018-04-19T14:02:27.734Z,39.30
2018-04-19T14:04:56.148Z,40.40
2018-04-19T14:07:23.940Z,39.70
2018-04-19T14:09:51.552Z,39.60
2018-04-19T14:12:20.182Z,39.70
2018-04-19T14:14:47.784Z,39.60
2018-04-19T14:17:15.507Z,39.00
2018-04-19T14:19:43.376Z,39.70
2018-04-19T14:22:11.072Z,39.60
2018-04-19T14:24:38.679Z,39.00
2018-04-19T14:27:06.315Z,39.30
2018-04-19T14:29:34.843Z,39.60
2018-04-19T14:32:02.637Z,39.60
2018-04-19T14:34:30.407Z,38.10
2018-04-19T14:36:58.138Z,37.90
2018-04-19T14:39:25.905Z,37.40
2018-04-19T14:41:53.605Z,38.50
2018-04-19T14:44:21.983Z,39.10
2018-04-19T14:46:49.709Z,39.10
2018-04-19T14:49:17.396Z,39.70
2018-04-19T14:51:45.072Z,39.20
2018-04-19T14:54:12.906Z,39.40
2018-04-19T14:56:40.587Z,39.10
2018-04-19T14:59:08.188Z,39.50
2018-04-19T15:01:36.560Z,41.20
2018-04-19T15:04:04.977Z,41.60
2018-04-19T15:06:34.046Z,40.90
2018-04-19T15:09:01.743Z,40.90
2018-04-19T15:11:29.384Z,41.30
2018-04-19T15:13:57.026Z,41.40
2018-04-19T15:16:25.425Z,41.70
2018-04-19T15:18:53.140Z,41.70
2018-04-19T15:21:20.788Z,41.60
2018-04-19T15:23:48.397Z,41.40
2018-04-19T15:26:16.789Z,42.20
2018-04-19T15:28:44.448Z,42.20
2018-04-19T15:31:12.242Z,41.60
2018-04-19T15:33:40.005Z,41.80
2018-04-19T15:36:07.657Z,41.40
2018-04-19T15:38:35.369Z,41.30
2018-04-19T15:41:03.828Z,41.50
2018-04-19T15:43:31.575Z,41.40
2018-04-19T15:45:59.348Z,41.90
2018-04-19T15:48:27.105Z,42.00
2018-04-19T15:50:54.717Z,42.10
2018-04-19T15:53:24.170Z,41.80
2018-04-19T15:55:51.828Z,41.70
2018-04-19T15:58:19.600Z,42.50
2018-04-19T16:00:47.290Z,42.90
2018-04-19T16:03:14.936Z,42.60
2018-04-19T16:05:42.546Z,42.40
2018-04-19T16:08:11.007Z,42.60
2018-04-19T16:10:39.379Z,42.20
2018-04-19T16:13:07.045Z,42.10
2018-04-19T16:15:35.452Z,42.50
2018-04-19T16:18:04.993Z,42.00
2018-04-19T16:20:32.617Z,41.80
2018-04-19T16:23:01.137Z,42.10
2018-04-19T16:25:28.798Z,42.10
2018-04-19T16:27:56.596Z,42.50
2018-04-19T16:30:24.328Z,42.40
2018-04-19T16:32:52.094Z,41.00
2018-04-19T16:35:19.857Z,41.40
2018-04-19T16:37:47.551Z,41.00
2018-04-19T16:40:15.175Z,41.20
2018-04-19T16:42:42.963Z,41.50
2018-04-19T16:45:10.578Z,40.80
2018-04-19T16:47:38.186Z,40.30
2018-04-19T16:50:05.828Z,39.60
2018-04-19T16:52:33.440Z,39.30
2018-04-19T16:55:02.792Z,38.90
2018-04-19T16:57:30.408Z,38.90
2018-04-19T16:59:58.860Z,38.30
2018-04-19T17:02:26.472Z,38.30
2018-04-19T17:04:54.100Z,38.40
2018-04-19T17:07:22.643Z,38.40
2018-04-19T17:09:50.407Z,38.40
2018-04-19T17:12:18.273Z,38.40
2018-04-19T17:14:46.166Z,38.60
2018-04-19T17:17:13.843Z,39.10
2018-04-19T17:19:41.671Z,39.70
2018-04-19T17:22:09.434Z,40.40
2018-04-19T17:24:37.091Z,40.80
2018-04-19T17:27:04.789Z,41.00
2018-04-19T17:29:32.553Z,41.60
2018-04-19T17:32:00.300Z,42.00
2018-04-19T17:34:27.913Z,42.60
2018-04-19T17:36:56.279Z,43.30
2018-04-19T17:39:24.689Z,43.50
2018-04-19T17:41:52.353Z,43.50
2018-04-19T17:44:19.968Z,44.00
2018-04-19T17:46:48.524Z,44.70
2018-04-19T17:49:16.281Z,44.80
2018-04-19T17:51:43.972Z,45.20
2018-04-19T17:54:14.085Z,45.70
2018-04-19T17:56:43.364Z,45.90
2018-04-19T17:59:11.012Z,45.90
2018-04-19T18:01:38.620Z,46.00
2018-04-19T18:04:07.052Z,47.10
2018-04-19T18:06:34.662Z,47.00
2018-04-19T18:09:02.396Z,47.10
2018-04-19T18:11:30.184Z,47.10
2018-04-19T18:13:57.796Z,47.70
2018-04-19T18:16:25.587Z,47.60
2018-04-19T18:18:53.277Z,47.50
2018-04-19T18:21:20.930Z,47.50
2018-04-19T18:23:48.539Z,47.80
2018-04-19T18:26:16.175Z,47.60
2018-04-19T18:28:43.795Z,48.00
2018-04-19T18:31:11.403Z,48.90
2018-04-19T18:33:39.828Z,49.50
2018-04-19T18:36:07.600Z,49.30
2018-04-19T18:38:35.366Z,49.40
2018-04-19T18:41:03.130Z,49.70
2018-04-19T18:43:30.928Z,49.90
2018-04-19T18:45:58.695Z,50.10
2018-04-19T18:48:26.304Z,50.00
2018-04-19T18:50:53.956Z,50.20
2018-04-19T18:53:21.677Z,50.30
2018-04-19T18:55:49.284Z,51.00
2018-04-19T18:58:16.922Z,50.90
2018-04-19T19:00:45.565Z,51.80
2018-04-19T19:03:13.168Z,51.70
2018-04-19T19:05:41.891Z,51.60
2018-04-19T19:08:09.543Z,51.60
2018-04-19T19:10:37.344Z,51.90
2018-04-19T19:13:05.102Z,51.60
2018-04-19T19:18:57.264Z,51.40
2018-04-19T19:21:25.844Z,52.90
2018-04-19T19:23:53.458Z,53.50
2018-04-19T19:26:21.831Z,52.50
2018-04-19T19:28:50.231Z,53.20
2018-04-19T19:31:17.957Z,53.10
2018-04-19T19:33:46.344Z,54.50
2018-04-19T19:36:14.886Z,54.50
2018-04-19T19:38:42.541Z,54.10
2018-04-19T19:41:10.150Z,54.20
2018-04-19T19:43:37.777Z,54.40
2018-04-19T19:46:05.640Z,54.50
2018-04-19T19:48:33.314Z,55.00
2018-04-19T19:51:01.018Z,55.00
2018-04-19T19:53:29.431Z,56.00
2018-04-19T19:55:57.210Z,56.00
2018-04-19T19:58:24.901Z,56.10
2018-04-19T20:00:52.560Z,57.50
2018-04-19T20:03:20.171Z,57.50
2018-04-19T20:05:47.862Z,58.70
2018-04-19T20:08:15.547Z,57.00
2018-04-19T20:10:43.195Z,56.50
2018-04-19T20:13:10.953Z,57.80
2018-04-19T20:15:38.611Z,57.30
2018-04-19T20:18:06.219Z,57.20
2018-04-19T20:20:34.756Z,58.10
2018-04-19T20:23:02.450Z,58.00
2018-04-19T20:25:30.424Z,58.30
2018-04-19T20:27:58.847Z,58.30
2018-04-19T20:30:26.456Z,58.30
2018-04-19T20:32:54.124Z,58.60
2018-04-19T20:35:21.727Z,58.70
2018-04-19T20:37:49.356Z,58.70
2018-04-19T20:40:17.105Z,59.00
2018-04-19T20:42:44.715Z,58.90
2018-04-19T20:45:12.434Z,59.50
2018-04-19T20:47:40.192Z,60.00
2018-04-19T20:50:07.854Z,60.30
2018-04-19T20:52:35.501Z,60.30
2018-04-19T20:55:03.285Z,60.70
2018-04-19T20:57:31.532Z,60.90
2018-04-19T20:59:59.191Z,61.30
2018-04-19T21:02:26.845Z,61.40
2018-04-19T21:04:54.556Z,61.70
2018-04-19T21:07:22.286Z,61.60
2018-04-19T21:09:50.052Z,62.40
2018-04-19T21:12:17.702Z,62.40
2018-04-19T21:14:45.405Z,62.10
2018-04-19T21:17:13.034Z,62.20
2018-04-19T21:19:40.644Z,62.10
2018-04-19T21:22:09.263Z,62.50
2018-04-19T21:24:36.890Z,62.50
2018-04-19T21:27:05.426Z,62.70
2018-04-19T21:29:33.222Z,62.60
2018-04-19T21:32:00.956Z,63.20
2018-04-19T21:34:28.604Z,63.60
2018-04-19T21:36:56.313Z,63.60
2018-04-19T21:39:23.937Z,63.20
2018-04-19T21:41:51.708Z,63.10
2018-04-19T21:44:19.334Z,63.10
2018-04-19T21:46:46.960Z,63.20
2018-04-19T21:49:14.644Z,63.40
2018-04-19T21:51:43.114Z,64.00
2018-04-19T21:54:10.765Z,63.90
2018-04-19T21:56:38.403Z,63.60
2018-04-19T21:59:06.074Z,63.90
2018-04-19T22:01:33.725Z,64.00
2018-04-19T22:04:01.417Z,64.10
2018-04-19T22:06:29.058Z,64.20
2018-04-19T22:08:56.690Z,64.40
2018-04-19T22:11:24.406Z,64.90
2018-04-19T22:13:52.243Z,65.00
2018-04-19T22:16:19.870Z,65.20
2018-04-19T22:18:47.516Z,65.10
2018-04-19T22:21:15.945Z,65.70
2018-04-19T22:23:43.601Z,65.70
2018-04-19T22:26:11.373Z,65.60
2018-04-19T22:28:39.021Z,65.50
2018-04-19T22:31:06.695Z,66.00
2018-04-19T22:33:34.320Z,66.60
2018-04-19T22:36:02.734Z,66.00
2018-04-19T22:38:30.606Z,66.00
2018-04-19T22:40:58.407Z,66.10
2018-04-19T22:43:26.848Z,66.80
2018-04-19T22:45:54.617Z,66.70
2018-04-19T22:48:22.828Z,66.70
2018-04-19T22:50:50.468Z,66.60
2018-04-19T22:53:18.426Z,66.50
2018-04-19T22:55:46.294Z,66.50
2018-04-19T22:58:13.920Z,67.20
2018-04-19T23:00:41.572Z,67.40
2018-04-19T23:03:10.097Z,68.20
2018-04-19T23:05:37.860Z,68.20
2018-04-19T23:08:05.626Z,67.80
2018-04-19T23:10:33.288Z,68.10
2018-04-19T23:13:01.157Z,68.20
2018-04-19T23:15:29.024Z,68.10
2018-04-19T23:17:56.787Z,68.10
2018-04-19T23:20:24.552Z,69.00
2018-04-19T23:22:52.419Z,69.30
2018-04-19T23:25:20.184Z,69.30
2018-04-19T23:27:47.868Z,69.50
2018-04-19T23:30:15.645Z,69.30
2018-04-19T23:32:43.293Z,69.40
2018-04-19T23:35:11.147Z,69.40
2018-04-19T23:37:38.843Z,68.90
2018-04-19T23:40:06.568Z,68.50
2018-04-19T23:42:34.435Z,68.60
2018-04-19T23:45:02.225Z,68.50
2018-04-19T23:47:29.964Z,68.50
2018-04-19T23:49:57.833Z,69.00
2018-04-19T23:52:25.493Z,68.90
2018-04-19T23:54:53.259Z,69.30
2018-04-19T23:57:20.956Z,69.20
2018-04-19T23:59:48.605Z,69.50
